createdAt,value
2022-08-26T00:03:49.167Z,9.9
2022-08-26T00:18:48.966Z,9.42
2022-08-26T00:33:48.582Z,9.7
2022-08-26T00:48:49.416Z,10.44
2022-08-26T01:03:48.915Z,9.98
2022-08-26T01:18:49.173Z,10.03
2022-08-26T01:33:49.008Z,10.51
2022-08-26T01:48:49.296Z,10.45
2022-08-26T02:03:48.689Z,9.83
2022-08-26T02:18:49.489Z,12.43
2022-08-26T02:33:49.229Z,9.96
2022-08-26T02:48:49.359Z,9.3
2022-08-26T03:03:49.320Z,10.13
2022-08-26T03:18:52.155Z,10.12
2022-08-26T03:33:49.042Z,9.64
2022-08-26T03:48:48.588Z,9.71
2022-08-26T04:03:48.980Z,10.06
2022-08-26T04:18:48.887Z,9.78
2022-08-26T04:33:49.547Z,9.77
2022-08-26T04:48:49.170Z,9.68
2022-08-26T05:03:49.441Z,9.59
2022-08-26T05:18:49.093Z,9.78
2022-08-26T05:33:48.900Z,9.38
2022-08-26T05:48:49.514Z,9.05
2022-08-26T06:03:48.961Z,9.49
2022-08-26T06:18:48.895Z,8.59
2022-08-26T06:33:49.170Z,8.34
2022-08-26T06:48:48.564Z,8.12
2022-08-26T07:03:48.773Z,7.76
2022-08-26T07:18:48.735Z,8.26
2022-08-26T07:33:48.788Z,7.92
2022-08-26T07:48:48.651Z,8.46
2022-08-26T08:03:50.485Z,8.35
2022-08-26T08:18:49.065Z,8.01
2022-08-26T08:33:48.959Z,8.28
2022-08-26T08:48:49.083Z,9.43
2022-08-26T09:03:49.092Z,8.43
2022-08-26T09:18:49.054Z,8.2
2022-08-26T09:33:48.707Z,7.81
2022-08-26T09:48:51.718Z,6.94
2022-08-26T10:03:49.310Z,7.08
2022-08-26T10:18:48.689Z,7.14
2022-08-26T10:33:48.811Z,12.8
2022-08-26T10:48:49.033Z,8.57
2022-08-26T11:03:48.868Z,7.43
2022-08-26T11:18:48.907Z,7.44
2022-08-26T11:33:48.991Z,7.42
2022-08-26T11:48:48.991Z,6.68
2022-08-26T12:03:49.423Z,7.73
2022-08-26T12:18:49.843Z,8.98
2022-08-26T12:33:48.607Z,9.1
2022-08-26T12:48:48.773Z,8.37
2022-08-26T13:03:49.070Z,8.07
2022-08-26T13:18:49.316Z,7.19
2022-08-26T13:33:48.538Z,7.16
2022-08-26T13:48:49.274Z,7.38
2022-08-26T14:03:49.228Z,7.14
2022-08-26T14:18:50.838Z,8.5
2022-08-26T14:33:49.163Z,9.23
2022-08-26T14:48:48.898Z,10.21
2022-08-26T15:03:49.618Z,10
2022-08-26T15:18:49.867Z,10.06
2022-08-26T15:33:49.202Z,9.63
2022-08-26T15:48:49.615Z,9.2
2022-08-26T16:03:52.659Z,10.24
2022-08-26T16:18:54.130Z,10
2022-08-26T16:33:49.261Z,10.12
2022-08-26T16:48:53.956Z,9.24
2022-08-26T17:03:51.947Z,9.93
2022-08-26T17:18:55.605Z,9.6
2022-08-26T17:33:53.632Z,10.44
2022-08-26T17:48:49.375Z,12.45
2022-08-26T18:03:49.307Z,10.1
2022-08-26T18:18:49.724Z,11.58
2022-08-26T18:33:49.779Z,10.08
2022-08-26T18:48:50.739Z,10.7
2022-08-26T19:03:49.434Z,16.11
2022-08-26T19:18:49.091Z,13.43
2022-08-26T19:33:49.157Z,11.26
2022-08-26T19:48:50.795Z,11.16
2022-08-26T20:03:49.345Z,10.2
2022-08-26T20:18:49.522Z,10.01
2022-08-26T20:33:48.944Z,10.71
2022-08-26T20:48:49.670Z,11.04
2022-08-26T21:03:50.311Z,13.5
2022-08-26T21:18:49.956Z,16.75
2022-08-26T21:33:48.750Z,11.48
2022-08-26T21:48:50.834Z,14.09
2022-08-26T22:03:49.171Z,12.18
2022-08-26T22:18:49.140Z,12.44
2022-08-26T22:33:48.617Z,12.43
2022-08-26T22:48:50.307Z,11.75
2022-08-26T23:03:49.106Z,12.84
2022-08-26T23:18:49.392Z,12
2022-08-26T23:33:49.340Z,7.5
2022-08-26T23:48:49.582Z,7.08
